sensor_id;sensor_type;location;lat;lon;timestamp;P1;durP1;ratioP1;P2;durP2;ratioP2
2724;SDS011;1370;52.596;13.112;2023-08-21T00:01:00;6.53;;;5.07;;
2724;SDS011;1370;52.596;13.112;2023-08-21T00:03:26;4.90;;;4.50;;
2724;SDS011;1370;52.596;13.112;2023-08-21T00:05:51;7.20;;;4.63;;
2724;SDS011;1370;52.596;13.112;2023-08-21T00:08:17;5.80;;;5.40;;
2724;SDS011;1370;52.596;13.112;2023-08-21T00:10:42;9.53;;;5.67;;
2724;SDS011;1370;52.596;13.112;2023-08-21T00:13:07;5.13;;;4.73;;
2724;SDS011;1370;52.596;13.112;2023-08-21T00:15:33;5.60;;;5.10;;
2724;SDS011;1370;52.596;13.112;2023-08-21T00:17:58;5.27;;;4.90;;
2724;SDS011;1370;52.596;13.112;2023-08-21T00:20:25;5.50;;;5.10;;
2724;SDS011;1370;52.596;13.112;2023-08-21T00:22:51;5.60;;;5.10;;
2724;SDS011;1370;52.596;13.112;2023-08-21T00:25:16;5.57;;;5.17;;
2724;SDS011;1370;52.596;13.112;2023-08-21T00:27:41;5.67;;;5.00;;
2724;SDS011;1370;52.596;13.112;2023-08-21T00:30:07;6.97;;;6.07;;
2724;SDS011;1370;52.596;13.112;2023-08-21T00:32:32;6.10;;;5.60;;
2724;SDS011;1370;52.596;13.112;2023-08-21T00:34:58;5.60;;;4.40;;
2724;SDS011;1370;52.596;13.112;2023-08-21T00:37:23;5.37;;;4.87;;
2724;SDS011;1370;52.596;13.112;2023-08-21T00:39:48;5.93;;;3.23;;
2724;SDS011;1370;52.596;13.112;2023-08-21T00:42:14;4.40;;;4.00;;
2724;SDS011;1370;52.596;13.112;2023-08-21T00:44:39;5.47;;;4.40;;
2724;SDS011;1370;52.596;13.112;2023-08-21T00:47:04;4.23;;;3.93;;
2724;SDS011;1370;52.596;13.112;2023-08-21T00:49:30;5.53;;;5.03;;
2724;SDS011;1370;52.596;13.112;2023-08-21T00:51:55;8.47;;;4.37;;
2724;SDS011;1370;52.596;13.112;2023-08-21T00:54:21;9.10;;;5.43;;
2724;SDS011;1370;52.596;13.112;2023-08-21T00:56:46;7.10;;;4.80;;
2724;SDS011;1370;52.596;13.112;2023-08-21T00:59:12;4.00;;;3.80;;
2724;SDS011;1370;52.596;13.112;2023-08-21T01:01:38;5.77;;;3.60;;
2724;SDS011;1370;52.596;13.112;2023-08-21T01:04:03;5.37;;;4.97;;
2724;SDS011;1370;52.596;13.112;2023-08-21T01:06:29;4.77;;;4.47;;
2724;SDS011;1370;52.596;13.112;2023-08-21T01:09:00;7.40;;;6.80;;
2724;SDS011;1370;52.596;13.112;2023-08-21T01:11:37;6.23;;;4.80;;
2724;SDS011;1370;52.596;13.112;2023-08-21T01:16:55;8.10;;;5.47;;
2724;SDS011;1370;52.596;13.112;2023-08-21T01:19:26;5.03;;;4.57;;
2724;SDS011;1370;52.596;13.112;2023-08-21T01:21:59;5.40;;;4.80;;
2724;SDS011;1370;52.596;13.112;2023-08-21T01:24:25;7.20;;;5.40;;
2724;SDS011;1370;52.596;13.112;2023-08-21T01:26:50;6.17;;;5.67;;
2724;SDS011;1370;52.596;13.112;2023-08-21T01:29:16;9.13;;;6.57;;
2724;SDS011;1370;52.596;13.112;2023-08-21T01:31:41;6.50;;;4.67;;
2724;SDS011;1370;52.596;13.112;2023-08-21T01:34:12;6.50;;;5.90;;
2724;SDS011;1370;52.596;13.112;2023-08-21T01:36:38;5.40;;;5.00;;
2724;SDS011;1370;52.596;13.112;2023-08-21T01:39:04;7.87;;;5.00;;
2724;SDS011;1370;52.596;13.112;2023-08-21T01:41:29;6.30;;;5.80;;
2724;SDS011;1370;52.596;13.112;2023-08-21T01:43:55;6.50;;;5.90;;
2724;SDS011;1370;52.596;13.112;2023-08-21T01:46:20;6.47;;;5.97;;
2724;SDS011;1370;52.596;13.112;2023-08-21T01:48:45;9.70;;;5.80;;
2724;SDS011;1370;52.596;13.112;2023-08-21T01:51:11;6.00;;;5.40;;
2724;SDS011;1370;52.596;13.112;2023-08-21T01:53:36;6.30;;;5.80;;
2724;SDS011;1370;52.596;13.112;2023-08-21T01:56:01;7.50;;;6.70;;
2724;SDS011;1370;52.596;13.112;2023-08-21T01:58:26;12.03;;;7.63;;
2724;SDS011;1370;52.596;13.112;2023-08-21T02:00:52;6.03;;;5.53;;
2724;SDS011;1370;52.596;13.112;2023-08-21T02:03:17;6.90;;;5.87;;
2724;SDS011;1370;52.596;13.112;2023-08-21T02:05:43;5.40;;;5.00;;
2724;SDS011;1370;52.596;13.112;2023-08-21T02:08:11;7.03;;;5.40;;
2724;SDS011;1370;52.596;13.112;2023-08-21T02:10:37;5.70;;;5.17;;
2724;SDS011;1370;52.596;13.112;2023-08-21T02:13:03;6.80;;;6.13;;
2724;SDS011;1370;52.596;13.112;2023-08-21T02:15:28;5.97;;;5.40;;
2724;SDS011;1370;52.596;13.112;2023-08-21T02:17:53;8.47;;;5.23;;
2724;SDS011;1370;52.596;13.112;2023-08-21T02:20:19;6.23;;;5.63;;
2724;SDS011;1370;52.596;13.112;2023-08-21T02:22:44;5.50;;;5.07;;
2724;SDS011;1370;52.596;13.112;2023-08-21T02:25:10;6.60;;;6.00;;
2724;SDS011;1370;52.596;13.112;2023-08-21T02:27:35;6.80;;;6.30;;
2724;SDS011;1370;52.596;13.112;2023-08-21T02:30:01;6.50;;;6.00;;
2724;SDS011;1370;52.596;13.112;2023-08-21T02:32:26;7.50;;;6.77;;
2724;SDS011;1370;52.596;13.112;2023-08-21T02:34:51;10.20;;;8.00;;
2724;SDS011;1370;52.596;13.112;2023-08-21T02:37:17;6.10;;;5.50;;
2724;SDS011;1370;52.596;13.112;2023-08-21T02:39:42;6.20;;;5.70;;
2724;SDS011;1370;52.596;13.112;2023-08-21T02:42:07;6.20;;;5.80;;
2724;SDS011;1370;52.596;13.112;2023-08-21T02:44:33;8.77;;;6.00;;
2724;SDS011;1370;52.596;13.112;2023-08-21T02:46:58;7.27;;;6.67;;
2724;SDS011;1370;52.596;13.112;2023-08-21T02:49:23;7.97;;;7.10;;
2724;SDS011;1370;52.596;13.112;2023-08-21T02:51:49;10.80;;;7.77;;
2724;SDS011;1370;52.596;13.112;2023-08-21T02:54:14;9.17;;;8.23;;
2724;SDS011;1370;52.596;13.112;2023-08-21T02:56:39;10.37;;;9.40;;
2724;SDS011;1370;52.596;13.112;2023-08-21T02:59:04;8.80;;;7.87;;
2724;SDS011;1370;52.596;13.112;2023-08-21T03:01:30;6.60;;;6.00;;
2724;SDS011;1370;52.596;13.112;2023-08-21T03:03:55;8.40;;;7.80;;
2724;SDS011;1370;52.596;13.112;2023-08-21T03:06:20;10.67;;;7.53;;
2724;SDS011;1370;52.596;13.112;2023-08-21T03:08:46;8.37;;;6.90;;
2724;SDS011;1370;52.596;13.112;2023-08-21T03:11:11;9.60;;;8.60;;
2724;SDS011;1370;52.596;13.112;2023-08-21T03:13:36;6.70;;;6.27;;
2724;SDS011;1370;52.596;13.112;2023-08-21T03:16:02;6.50;;;6.10;;
2724;SDS011;1370;52.596;13.112;2023-08-21T03:18:30;7.27;;;6.67;;
2724;SDS011;1370;52.596;13.112;2023-08-21T03:20:56;7.00;;;6.30;;
2724;SDS011;1370;52.596;13.112;2023-08-21T03:23:21;9.27;;;6.40;;
2724;SDS011;1370;52.596;13.112;2023-08-21T03:25:52;7.10;;;6.50;;
2724;SDS011;1370;52.596;13.112;2023-08-21T03:28:17;9.13;;;8.30;;
2724;SDS011;1370;52.596;13.112;2023-08-21T03:30:42;8.10;;;6.97;;
2724;SDS011;1370;52.596;13.112;2023-08-21T03:33:08;12.30;;;7.87;;
2724;SDS011;1370;52.596;13.112;2023-08-21T03:35:33;8.83;;;7.53;;
2724;SDS011;1370;52.596;13.112;2023-08-21T03:37:58;8.37;;;7.00;;
2724;SDS011;1370;52.596;13.112;2023-08-21T03:40:24;8.13;;;7.33;;
2724;SDS011;1370;52.596;13.112;2023-08-21T03:42:49;7.70;;;7.03;;
2724;SDS011;1370;52.596;13.112;2023-08-21T03:45:14;8.37;;;7.77;;
2724;SDS011;1370;52.596;13.112;2023-08-21T03:47:40;8.60;;;7.80;;
2724;SDS011;1370;52.596;13.112;2023-08-21T03:50:05;9.60;;;8.70;;
2724;SDS011;1370;52.596;13.112;2023-08-21T03:52:31;8.40;;;7.60;;
2724;SDS011;1370;52.596;13.112;2023-08-21T03:54:56;7.63;;;7.03;;
2724;SDS011;1370;52.596;13.112;2023-08-21T03:57:21;9.87;;;7.77;;
2724;SDS011;1370;52.596;13.112;2023-08-21T03:59:46;9.07;;;8.20;;
2724;SDS011;1370;52.596;13.112;2023-08-21T04:02:12;9.77;;;8.57;;
2724;SDS011;1370;52.596;13.112;2023-08-21T04:04:39;10.63;;;8.87;;
2724;SDS011;1370;52.596;13.112;2023-08-21T04:07:05;14.43;;;8.97;;
2724;SDS011;1370;52.596;13.112;2023-08-21T04:09:31;9.73;;;8.30;;
2724;SDS011;1370;52.596;13.112;2023-08-21T04:11:56;10.23;;;8.37;;
2724;SDS011;1370;52.596;13.112;2023-08-21T04:14:21;10.63;;;8.30;;
2724;SDS011;1370;52.596;13.112;2023-08-21T04:16:47;13.03;;;8.30;;
2724;SDS011;1370;52.596;13.112;2023-08-21T04:19:12;10.23;;;9.03;;
2724;SDS011;1370;52.596;13.112;2023-08-21T04:21:37;9.93;;;8.97;;
2724;SDS011;1370;52.596;13.112;2023-08-21T04:24:02;9.50;;;8.00;;
2724;SDS011;1370;52.596;13.112;2023-08-21T04:26:28;9.60;;;8.90;;
2724;SDS011;1370;52.596;13.112;2023-08-21T04:28:53;9.67;;;8.90;;
2724;SDS011;1370;52.596;13.112;2023-08-21T04:31:18;9.57;;;8.67;;
2724;SDS011;1370;52.596;13.112;2023-08-21T04:33:44;12.50;;;9.57;;
2724;SDS011;1370;52.596;13.112;2023-08-21T04:36:14;10.80;;;9.90;;
2724;SDS011;1370;52.596;13.112;2023-08-21T04:38:40;11.60;;;9.63;;
2724;SDS011;1370;52.596;13.112;2023-08-21T04:41:06;10.70;;;9.60;;
2724;SDS011;1370;52.596;13.112;2023-08-21T04:43:32;12.40;;;10.03;;
2724;SDS011;1370;52.596;13.112;2023-08-21T04:45:58;8.93;;;8.13;;
2724;SDS011;1370;52.596;13.112;2023-08-21T04:48:23;8.80;;;8.00;;
2724;SDS011;1370;52.596;13.112;2023-08-21T04:50:48;8.83;;;8.10;;
2724;SDS011;1370;52.596;13.112;2023-08-21T04:53:14;9.53;;;8.67;;
2724;SDS011;1370;52.596;13.112;2023-08-21T04:55:39;10.00;;;9.10;;
2724;SDS011;1370;52.596;13.112;2023-08-21T04:58:05;10.60;;;8.70;;
2724;SDS011;1370;52.596;13.112;2023-08-21T05:00:31;11.33;;;10.23;;
2724;SDS011;1370;52.596;13.112;2023-08-21T05:02:56;9.03;;;8.33;;
2724;SDS011;1370;52.596;13.112;2023-08-21T05:05:25;10.47;;;9.23;;
2724;SDS011;1370;52.596;13.112;2023-08-21T05:07:51;10.80;;;9.20;;
2724;SDS011;1370;52.596;13.112;2023-08-21T05:10:17;10.43;;;9.33;;
2724;SDS011;1370;52.596;13.112;2023-08-21T05:12:42;9.73;;;8.73;;
2724;SDS011;1370;52.596;13.112;2023-08-21T05:15:07;9.20;;;8.30;;
2724;SDS011;1370;52.596;13.112;2023-08-21T05:17:33;10.23;;;8.13;;
2724;SDS011;1370;52.596;13.112;2023-08-21T05:19:58;12.40;;;9.13;;
2724;SDS011;1370;52.596;13.112;2023-08-21T05:22:24;9.70;;;8.70;;
2724;SDS011;1370;52.596;13.112;2023-08-21T05:24:49;9.70;;;8.70;;
2724;SDS011;1370;52.596;13.112;2023-08-21T05:27:14;9.93;;;8.90;;
2724;SDS011;1370;52.596;13.112;2023-08-21T05:29:40;12.40;;;10.63;;
2724;SDS011;1370;52.596;13.112;2023-08-21T05:32:05;12.60;;;9.93;;
2724;SDS011;1370;52.596;13.112;2023-08-21T05:34:30;14.90;;;9.13;;
2724;SDS011;1370;52.596;13.112;2023-08-21T05:36:56;11.93;;;10.40;;
2724;SDS011;1370;52.596;13.112;2023-08-21T05:39:21;11.93;;;9.07;;
2724;SDS011;1370;52.596;13.112;2023-08-21T05:41:46;11.60;;;10.50;;
2724;SDS011;1370;52.596;13.112;2023-08-21T05:44:12;12.47;;;9.77;;
2724;SDS011;1370;52.596;13.112;2023-08-21T05:46:37;10.47;;;9.43;;
2724;SDS011;1370;52.596;13.112;2023-08-21T05:49:03;16.27;;;10.70;;
2724;SDS011;1370;52.596;13.112;2023-08-21T05:51:28;12.60;;;10.00;;
2724;SDS011;1370;52.596;13.112;2023-08-21T05:53:53;11.93;;;9.73;;
2724;SDS011;1370;52.596;13.112;2023-08-21T05:56:19;11.13;;;10.13;;
2724;SDS011;1370;52.596;13.112;2023-08-21T05:58:44;16.37;;;12.27;;
2724;SDS011;1370;52.596;13.112;2023-08-21T06:01:09;13.93;;;11.17;;
2724;SDS011;1370;52.596;13.112;2023-08-21T06:03:34;11.30;;;10.20;;
2724;SDS011;1370;52.596;13.112;2023-08-21T06:06:00;19.43;;;13.03;;
2724;SDS011;1370;52.596;13.112;2023-08-21T06:08:25;11.90;;;10.70;;
2724;SDS011;1370;52.596;13.112;2023-08-21T06:10:51;11.93;;;10.40;;
2724;SDS011;1370;52.596;13.112;2023-08-21T06:13:16;15.10;;;12.20;;
2724;SDS011;1370;52.596;13.112;2023-08-21T06:15:43;13.50;;;10.93;;
2724;SDS011;1370;52.596;13.112;2023-08-21T06:18:09;13.80;;;11.10;;
2724;SDS011;1370;52.596;13.112;2023-08-21T06:20:35;17.00;;;11.67;;
2724;SDS011;1370;52.596;13.112;2023-08-21T06:23:01;14.87;;;12.07;;
2724;SDS011;1370;52.596;13.112;2023-08-21T06:25:26;19.63;;;10.43;;
2724;SDS011;1370;52.596;13.112;2023-08-21T06:27:51;11.20;;;10.20;;
2724;SDS011;1370;52.596;13.112;2023-08-21T06:30:16;11.87;;;10.37;;
2724;SDS011;1370;52.596;13.112;2023-08-21T06:32:42;14.63;;;11.60;;
2724;SDS011;1370;52.596;13.112;2023-08-21T06:35:08;13.13;;;11.77;;
2724;SDS011;1370;52.596;13.112;2023-08-21T06:37:34;13.17;;;11.37;;
2724;SDS011;1370;52.596;13.112;2023-08-21T06:39:59;14.83;;;11.50;;
2724;SDS011;1370;52.596;13.112;2023-08-21T06:42:24;16.20;;;12.00;;
2724;SDS011;1370;52.596;13.112;2023-08-21T06:44:50;15.80;;;12.00;;
2724;SDS011;1370;52.596;13.112;2023-08-21T06:47:15;13.47;;;11.47;;
2724;SDS011;1370;52.596;13.112;2023-08-21T06:49:40;14.47;;;10.27;;
2724;SDS011;1370;52.596;13.112;2023-08-21T06:52:06;13.13;;;9.30;;
2724;SDS011;1370;52.596;13.112;2023-08-21T06:54:31;10.30;;;9.37;;
2724;SDS011;1370;52.596;13.112;2023-08-21T06:56:57;12.43;;;11.13;;
2724;SDS011;1370;52.596;13.112;2023-08-21T06:59:23;16.83;;;11.27;;
2724;SDS011;1370;52.596;13.112;2023-08-21T07:01:49;12.83;;;11.50;;
2724;SDS011;1370;52.596;13.112;2023-08-21T07:04:15;12.47;;;11.07;;
2724;SDS011;1370;52.596;13.112;2023-08-21T07:06:40;15.07;;;9.17;;
2724;SDS011;1370;52.596;13.112;2023-08-21T07:09:05;11.00;;;10.03;;
2724;SDS011;1370;52.596;13.112;2023-08-21T07:11:31;11.43;;;9.60;;
2724;SDS011;1370;52.596;13.112;2023-08-21T07:13:58;23.70;;;10.40;;
2724;SDS011;1370;52.596;13.112;2023-08-21T07:16:24;8.20;;;7.50;;
2724;SDS011;1370;52.596;13.112;2023-08-21T07:18:51;9.63;;;8.83;;
2724;SDS011;1370;52.596;13.112;2023-08-21T07:21:16;8.53;;;7.53;;
2724;SDS011;1370;52.596;13.112;2023-08-21T07:23:42;7.63;;;6.93;;
2724;SDS011;1370;52.596;13.112;2023-08-21T07:26:07;11.27;;;6.50;;
2724;SDS011;1370;52.596;13.112;2023-08-21T07:28:33;6.70;;;6.20;;
2724;SDS011;1370;52.596;13.112;2023-08-21T07:30:58;6.57;;;5.70;;
2724;SDS011;1370;52.596;13.112;2023-08-21T07:33:24;7.27;;;6.57;;
2724;SDS011;1370;52.596;13.112;2023-08-21T07:35:57;5.60;;;5.10;;
2724;SDS011;1370;52.596;13.112;2023-08-21T07:38:29;9.43;;;5.03;;
2724;SDS011;1370;52.596;13.112;2023-08-21T07:41:08;6.20;;;4.63;;
2724;SDS011;1370;52.596;13.112;2023-08-21T07:43:37;5.70;;;3.50;;
2724;SDS011;1370;52.596;13.112;2023-08-21T07:46:05;4.63;;;3.33;;
2724;SDS011;1370;52.596;13.112;2023-08-21T07:48:31;5.20;;;3.60;;
2724;SDS011;1370;52.596;13.112;2023-08-21T07:50:56;5.53;;;3.80;;
2724;SDS011;1370;52.596;13.112;2023-08-21T07:53:22;4.50;;;3.30;;
2724;SDS011;1370;52.596;13.112;2023-08-21T07:55:48;2.70;;;2.50;;
2724;SDS011;1370;52.596;13.112;2023-08-21T07:58:13;3.87;;;2.77;;
2724;SDS011;1370;52.596;13.112;2023-08-21T08:00:38;4.80;;;2.90;;
2724;SDS011;1370;52.596;13.112;2023-08-21T08:03:04;4.23;;;2.80;;
2724;SDS011;1370;52.596;13.112;2023-08-21T08:05:32;3.00;;;2.37;;
2724;SDS011;1370;52.596;13.112;2023-08-21T08:08:01;3.10;;;2.40;;
2724;SDS011;1370;52.596;13.112;2023-08-21T08:10:26;3.20;;;2.40;;
2724;SDS011;1370;52.596;13.112;2023-08-21T08:12:55;4.63;;;2.50;;
2724;SDS011;1370;52.596;13.112;2023-08-21T08:15:21;2.47;;;2.37;;
2724;SDS011;1370;52.596;13.112;2023-08-21T08:17:47;3.07;;;2.77;;
2724;SDS011;1370;52.596;13.112;2023-08-21T08:20:19;2.77;;;1.80;;
2724;SDS011;1370;52.596;13.112;2023-08-21T08:22:44;2.67;;;1.80;;
2724;SDS011;1370;52.596;13.112;2023-08-21T08:25:14;2.57;;;1.87;;
2724;SDS011;1370;52.596;13.112;2023-08-21T08:27:58;6.80;;;1.70;;
2724;SDS011;1370;52.596;13.112;2023-08-21T08:30:23;5.57;;;2.80;;
2724;SDS011;1370;52.596;13.112;2023-08-21T08:32:49;4.00;;;1.90;;
2724;SDS011;1370;52.596;13.112;2023-08-21T08:35:14;3.87;;;1.37;;
2724;SDS011;1370;52.596;13.112;2023-08-21T08:37:45;2.30;;;1.73;;
2724;SDS011;1370;52.596;13.112;2023-08-21T08:40:11;3.83;;;2.00;;
2724;SDS011;1370;52.596;13.112;2023-08-21T08:42:39;2.33;;;1.87;;
2724;SDS011;1370;52.596;13.112;2023-08-21T08:45:07;2.27;;;1.63;;
2724;SDS011;1370;52.596;13.112;2023-08-21T08:47:35;2.23;;;1.67;;
2724;SDS011;1370;52.596;13.112;2023-08-21T08:50:04;2.87;;;1.90;;
2724;SDS011;1370;52.596;13.112;2023-08-21T08:52:31;4.83;;;2.40;;
2724;SDS011;1370;52.596;13.112;2023-08-21T08:55:07;7.03;;;2.47;;
2724;SDS011;1370;52.596;13.112;2023-08-21T08:57:36;2.60;;;2.00;;
2724;SDS011;1370;52.596;13.112;2023-08-21T09:00:10;4.40;;;2.10;;
2724;SDS011;1370;52.596;13.112;2023-08-21T09:02:36;5.73;;;2.40;;
2724;SDS011;1370;52.596;13.112;2023-08-21T09:05:01;2.40;;;2.20;;
2724;SDS011;1370;52.596;13.112;2023-08-21T09:07:32;3.03;;;1.70;;
2724;SDS011;1370;52.596;13.112;2023-08-21T09:09:57;5.57;;;2.33;;
2724;SDS011;1370;52.596;13.112;2023-08-21T09:12:25;3.50;;;1.90;;
2724;SDS011;1370;52.596;13.112;2023-08-21T09:15:05;2.30;;;1.80;;
2724;SDS011;1370;52.596;13.112;2023-08-21T09:17:39;4.83;;;2.03;;
2724;SDS011;1370;52.596;13.112;2023-08-21T09:20:05;3.85;;;2.00;;
2724;SDS011;1370;52.596;13.112;2023-08-21T09:22:34;2.10;;;1.50;;
2724;SDS011;1370;52.596;13.112;2023-08-21T09:25:00;3.47;;;1.70;;
2724;SDS011;1370;52.596;13.112;2023-08-21T09:27:32;5.17;;;1.73;;
2724;SDS011;1370;52.596;13.112;2023-08-21T09:30:03;3.20;;;1.77;;
2724;SDS011;1370;52.596;13.112;2023-08-21T09:32:52;3.50;;;1.97;;
2724;SDS011;1370;52.596;13.112;2023-08-21T09:35:21;2.67;;;1.40;;
2724;SDS011;1370;52.596;13.112;2023-08-21T09:37:47;3.03;;;1.63;;
2724;SDS011;1370;52.596;13.112;2023-08-21T09:40:13;2.23;;;1.57;;
2724;SDS011;1370;52.596;13.112;2023-08-21T09:42:40;3.90;;;1.77;;
2724;SDS011;1370;52.596;13.112;2023-08-21T09:45:06;5.47;;;2.63;;
2724;SDS011;1370;52.596;13.112;2023-08-21T09:47:31;11.33;;;2.47;;
2724;SDS011;1370;52.596;13.112;2023-08-21T09:49:58;4.83;;;1.87;;
2724;SDS011;1370;52.596;13.112;2023-08-21T09:52:27;6.00;;;2.60;;
2724;SDS011;1370;52.596;13.112;2023-08-21T09:54:53;1.97;;;1.50;;
2724;SDS011;1370;52.596;13.112;2023-08-21T09:57:18;2.67;;;2.37;;
2724;SDS011;1370;52.596;13.112;2023-08-21T09:59:45;3.23;;;1.97;;
2724;SDS011;1370;52.596;13.112;2023-08-21T10:02:10;2.63;;;1.70;;
2724;SDS011;1370;52.596;13.112;2023-08-21T10:04:36;6.73;;;1.70;;
2724;SDS011;1370;52.596;13.112;2023-08-21T10:07:04;7.03;;;2.57;;
2724;SDS011;1370;52.596;13.112;2023-08-21T10:09:30;3.70;;;2.27;;
2724;SDS011;1370;52.596;13.112;2023-08-21T10:11:56;5.20;;;1.97;;
2724;SDS011;1370;52.596;13.112;2023-08-21T10:14:22;4.53;;;1.63;;
2724;SDS011;1370;52.596;13.112;2023-08-21T10:16:50;1.83;;;1.70;;
2724;SDS011;1370;52.596;13.112;2023-08-21T10:19:16;3.13;;;1.67;;
2724;SDS011;1370;52.596;13.112;2023-08-21T10:21:42;3.70;;;2.33;;
2724;SDS011;1370;52.596;13.112;2023-08-21T10:24:12;3.73;;;1.60;;
2724;SDS011;1370;52.596;13.112;2023-08-21T10:26:40;6.80;;;2.03;;
2724;SDS011;1370;52.596;13.112;2023-08-21T10:29:05;2.33;;;2.10;;
2724;SDS011;1370;52.596;13.112;2023-08-21T10:31:37;2.23;;;2.03;;
2724;SDS011;1370;52.596;13.112;2023-08-21T10:34:08;4.23;;;1.60;;
2724;SDS011;1370;52.596;13.112;2023-08-21T10:36:38;1.50;;;1.33;;
2724;SDS011;1370;52.596;13.112;2023-08-21T10:39:05;3.00;;;1.73;;
2724;SDS011;1370;52.596;13.112;2023-08-21T10:41:53;4.33;;;1.63;;
2724;SDS011;1370;52.596;13.112;2023-08-21T10:47:17;2.70;;;1.57;;
2724;SDS011;1370;52.596;13.112;2023-08-21T10:49:52;2.80;;;1.80;;
2724;SDS011;1370;52.596;13.112;2023-08-21T10:52:22;1.93;;;1.47;;
2724;SDS011;1370;52.596;13.112;2023-08-21T10:54:50;4.20;;;1.43;;
2724;SDS011;1370;52.596;13.112;2023-08-21T10:57:17;4.50;;;1.77;;
2724;SDS011;1370;52.596;13.112;2023-08-21T11:00:16;3.73;;;1.50;;
2724;SDS011;1370;52.596;13.112;2023-08-21T11:02:36;3.40;;;1.40;;
2724;SDS011;1370;52.596;13.112;2023-08-21T11:05:06;4.07;;;1.70;;
2724;SDS011;1370;52.596;13.112;2023-08-21T11:07:39;3.90;;;1.40;;
2724;SDS011;1370;52.596;13.112;2023-08-21T11:10:06;2.80;;;1.60;;
2724;SDS011;1370;52.596;13.112;2023-08-21T11:12:33;5.90;;;2.10;;
2724;SDS011;1370;52.596;13.112;2023-08-21T11:14:58;2.60;;;1.57;;
2724;SDS011;1370;52.596;13.112;2023-08-21T11:17:24;3.83;;;1.33;;
2724;SDS011;1370;52.596;13.112;2023-08-21T11:19:49;4.30;;;1.60;;
2724;SDS011;1370;52.596;13.112;2023-08-21T11:22:15;8.30;;;1.93;;
2724;SDS011;1370;52.596;13.112;2023-08-21T11:24:41;3.13;;;1.53;;
2724;SDS011;1370;52.596;13.112;2023-08-21T11:27:08;4.13;;;1.50;;
2724;SDS011;1370;52.596;13.112;2023-08-21T11:29:45;2.00;;;1.90;;
2724;SDS011;1370;52.596;13.112;2023-08-21T11:32:12;2.13;;;1.53;;
2724;SDS011;1370;52.596;13.112;2023-08-21T11:34:41;2.40;;;1.77;;
2724;SDS011;1370;52.596;13.112;2023-08-21T11:37:08;7.90;;;1.67;;
2724;SDS011;1370;52.596;13.112;2023-08-21T11:39:43;5.43;;;2.17;;
2724;SDS011;1370;52.596;13.112;2023-08-21T11:42:19;4.47;;;1.50;;
2724;SDS011;1370;52.596;13.112;2023-08-21T11:44:51;4.93;;;1.63;;
2724;SDS011;1370;52.596;13.112;2023-08-21T11:47:18;3.03;;;1.60;;
2724;SDS011;1370;52.596;13.112;2023-08-21T11:49:45;2.80;;;1.90;;
2724;SDS011;1370;52.596;13.112;2023-08-21T11:52:17;3.43;;;1.30;;
2724;SDS011;1370;52.596;13.112;2023-08-21T11:54:47;9.53;;;1.80;;
2724;SDS011;1370;52.596;13.112;2023-08-21T11:57:13;2.90;;;1.50;;
2724;SDS011;1370;52.596;13.112;2023-08-21T11:59:39;3.60;;;1.40;;
2724;SDS011;1370;52.596;13.112;2023-08-21T12:02:09;2.63;;;1.10;;
2724;SDS011;1370;52.596;13.112;2023-08-21T12:05:06;4.57;;;1.50;;
2724;SDS011;1370;52.596;13.112;2023-08-21T12:07:32;5.90;;;1.63;;
2724;SDS011;1370;52.596;13.112;2023-08-21T12:09:58;5.17;;;1.70;;
2724;SDS011;1370;52.596;13.112;2023-08-21T12:12:23;2.63;;;1.40;;
2724;SDS011;1370;52.596;13.112;2023-08-21T12:14:49;1.73;;;1.20;;
2724;SDS011;1370;52.596;13.112;2023-08-21T12:17:14;3.40;;;1.40;;
2724;SDS011;1370;52.596;13.112;2023-08-21T12:19:39;2.07;;;1.33;;
2724;SDS011;1370;52.596;13.112;2023-08-21T12:22:05;11.33;;;1.83;;
2724;SDS011;1370;52.596;13.112;2023-08-21T12:24:30;2.83;;;1.70;;
2724;SDS011;1370;52.596;13.112;2023-08-21T12:26:55;2.97;;;1.20;;
2724;SDS011;1370;52.596;13.112;2023-08-21T12:29:21;2.37;;;1.20;;
2724;SDS011;1370;52.596;13.112;2023-08-21T12:31:49;2.33;;;1.47;;
2724;SDS011;1370;52.596;13.112;2023-08-21T12:34:14;2.53;;;1.80;;
2724;SDS011;1370;52.596;13.112;2023-08-21T12:36:40;7.50;;;1.47;;
2724;SDS011;1370;52.596;13.112;2023-08-21T12:39:05;3.90;;;1.60;;
2724;SDS011;1370;52.596;13.112;2023-08-21T12:41:31;3.40;;;1.43;;
2724;SDS011;1370;52.596;13.112;2023-08-21T12:44:00;1.87;;;1.23;;
2724;SDS011;1370;52.596;13.112;2023-08-21T12:46:26;5.33;;;1.00;;
2724;SDS011;1370;52.596;13.112;2023-08-21T12:48:52;2.33;;;1.30;;
2724;SDS011;1370;52.596;13.112;2023-08-21T12:51:18;1.93;;;1.03;;
2724;SDS011;1370;52.596;13.112;2023-08-21T12:53:43;2.00;;;1.57;;
2724;SDS011;1370;52.596;13.112;2023-08-21T12:56:09;2.40;;;1.67;;
2724;SDS011;1370;52.596;13.112;2023-08-21T12:58:34;3.30;;;1.07;;
2724;SDS011;1370;52.596;13.112;2023-08-21T13:00:59;3.80;;;1.30;;
2724;SDS011;1370;52.596;13.112;2023-08-21T13:03:25;1.80;;;1.20;;
2724;SDS011;1370;52.596;13.112;2023-08-21T13:05:50;2.00;;;1.40;;
2724;SDS011;1370;52.596;13.112;2023-08-21T13:08:17;2.57;;;1.20;;
2724;SDS011;1370;52.596;13.112;2023-08-21T13:10:43;2.10;;;1.40;;
2724;SDS011;1370;52.596;13.112;2023-08-21T13:13:08;4.60;;;1.10;;
2724;SDS011;1370;52.596;13.112;2023-08-21T13:15:33;4.30;;;1.70;;
2724;SDS011;1370;52.596;13.112;2023-08-21T13:17:59;9.80;;;1.50;;
2724;SDS011;1370;52.596;13.112;2023-08-21T13:20:24;2.93;;;1.40;;
2724;SDS011;1370;52.596;13.112;2023-08-21T13:22:50;1.60;;;1.13;;
2724;SDS011;1370;52.596;13.112;2023-08-21T13:25:18;1.90;;;1.50;;
2724;SDS011;1370;52.596;13.112;2023-08-21T13:27:44;4.90;;;1.30;;
2724;SDS011;1370;52.596;13.112;2023-08-21T13:30:10;1.80;;;1.23;;
2724;SDS011;1370;52.596;13.112;2023-08-21T13:32:36;1.80;;;1.10;;
2724;SDS011;1370;52.596;13.112;2023-08-21T13:35:01;3.40;;;1.20;;
2724;SDS011;1370;52.596;13.112;2023-08-21T13:37:33;2.97;;;1.13;;
2724;SDS011;1370;52.596;13.112;2023-08-21T13:39:59;2.27;;;0.90;;
2724;SDS011;1370;52.596;13.112;2023-08-21T13:42:26;1.60;;;1.03;;
2724;SDS011;1370;52.596;13.112;2023-08-21T13:44:55;2.40;;;1.07;;
2724;SDS011;1370;52.596;13.112;2023-08-21T13:47:20;2.70;;;1.07;;
2724;SDS011;1370;52.596;13.112;2023-08-21T13:49:46;4.63;;;1.30;;
2724;SDS011;1370;52.596;13.112;2023-08-21T13:52:11;1.50;;;0.80;;
2724;SDS011;1370;52.596;13.112;2023-08-21T13:54:36;3.60;;;1.47;;
2724;SDS011;1370;52.596;13.112;2023-08-21T13:57:02;2.70;;;1.20;;
2724;SDS011;1370;52.596;13.112;2023-08-21T13:59:27;1.87;;;1.13;;
2724;SDS011;1370;52.596;13.112;2023-08-21T14:01:52;2.00;;;1.00;;
2724;SDS011;1370;52.596;13.112;2023-08-21T14:04:17;1.47;;;0.93;;
2724;SDS011;1370;52.596;13.112;2023-08-21T14:06:43;3.03;;;1.30;;
2724;SDS011;1370;52.596;13.112;2023-08-21T14:09:08;4.70;;;1.40;;
2724;SDS011;1370;52.596;13.112;2023-08-21T14:11:34;3.30;;;1.80;;
2724;SDS011;1370;52.596;13.112;2023-08-21T14:13:59;2.10;;;1.13;;
2724;SDS011;1370;52.596;13.112;2023-08-21T14:16:25;1.70;;;1.00;;
2724;SDS011;1370;52.596;13.112;2023-08-21T14:18:50;3.60;;;1.30;;
2724;SDS011;1370;52.596;13.112;2023-08-21T14:21:15;2.60;;;1.20;;
2724;SDS011;1370;52.596;13.112;2023-08-21T14:23:46;2.70;;;1.20;;
2724;SDS011;1370;52.596;13.112;2023-08-21T14:26:11;2.43;;;1.60;;
2724;SDS011;1370;52.596;13.112;2023-08-21T14:28:37;2.70;;;1.50;;
2724;SDS011;1370;52.596;13.112;2023-08-21T14:31:02;2.47;;;1.10;;
2724;SDS011;1370;52.596;13.112;2023-08-21T14:33:27;4.83;;;1.67;;
2724;SDS011;1370;52.596;13.112;2023-08-21T14:35:57;3.80;;;1.63;;
2724;SDS011;1370;52.596;13.112;2023-08-21T14:38:22;5.93;;;3.70;;
2724;SDS011;1370;52.596;13.112;2023-08-21T14:40:48;4.83;;;1.40;;
2724;SDS011;1370;52.596;13.112;2023-08-21T14:43:14;4.33;;;1.10;;
2724;SDS011;1370;52.596;13.112;2023-08-21T14:45:44;2.40;;;1.53;;
2724;SDS011;1370;52.596;13.112;2023-08-21T14:48:10;3.83;;;1.50;;
2724;SDS011;1370;52.596;13.112;2023-08-21T14:50:37;2.53;;;1.27;;
2724;SDS011;1370;52.596;13.112;2023-08-21T14:53:03;5.20;;;1.30;;
2724;SDS011;1370;52.596;13.112;2023-08-21T14:55:28;2.10;;;1.03;;
2724;SDS011;1370;52.596;13.112;2023-08-21T14:57:54;2.07;;;1.80;;
2724;SDS011;1370;52.596;13.112;2023-08-21T15:00:19;3.53;;;1.40;;